KWMC/WMC METAR and TAF weather

Enter ICAO airport designator
Station Type Date Time Source
KWMC METAR 2018/12/13 20:56 UTC NOAA

KWMC 132056Z AUTO 05009KT 10SM CLR 04/M05 A3038 RMK AO2 SLP302 T00391050 58016


Station Type Date Time Source
KWMC Decoded METAR 2018/12/13 20:56 UTC NOAA

WINNEMUCCA MUNICIPAL AIRPORT, NV, United States (KWMC) 40-54N 117-48W 1310M
Dec 13, 2018 - 03:56 PM EST / 2018.12.13 2056 UTC
Wind: from the NE (050 degrees) at 10 MPH (9 KT):0
Visibility: 10 mile(s):0
Sky conditions: clear
Temperature: 39.0 F (3.9 C)
Dew Point: 23.0 F (-5.0 C)
Relative Humidity: 52%
Pressure (altimeter): 30.38 in. Hg (1028 hPa)
Pressure tendency: 0.05 inches (1.6 hPa) lower than three hours ago
ob: KWMC 132056Z AUTO 05009KT 10SM CLR 04/M05 A3038 RMK AO2 SLP302 T00391050 58016
cycle: 21

Station Type Date Time Source
KWMC TAF 2018/12/13 18:42 UTC NOAA

TAF KWMC 131739Z 1318/1418 07009KT P6SM FEW100 BKN250
FM132100 07008KT P6SM FEW250
FM140400 10006KT P6SM SCT250
FM141700 15007KT P6SM FEW150 BKN250


Example: see airport list